PWSweather.com
Personal Weather Stations
Station Observations
11227
Alkmaarcentrum, AlkmaarNL 1813VP

AlkmaarcentrumAlkmaarNL 1813VP

Lat: 52.624433, Lon: 4.758153

Elevation: 0.5

Station Type: davis vantage pro2

Latest ConditionsUpdated 1:25:06 PM GMT+01:01 Tuesday, Jul 23, 2019
Currently Today's Max Today's Min Today's Average
Temperature 89.2°F31.8°C 89.2°F31.8°C 62.1°F16.7°C 70.5°F21.4°C
Dew Point 66.9°F19.4°C 68.2°F20.1°C 59.2°F15.1°C 62.3°F16.8°C
Winds 1.8 mph NW2.9 kmh NW 4.0 mph -6.4 kmh - - 1.2 mph 1.9 kmh
Wind Gusts 3.1 mph5.0 kmh 7.4 mph11.9 kmh - -
Humidity 48% 91% 48% 78%
Pressure 30.13 in1020.3 mb 30.19 in1022.4 mb 30.13 in1020.3 mb -
Hour Temp Dew Point Humidity Winds Wind Gusts Pressure Precip Precip Rate Daily Precip Total
01:25 PM 89.2°F31.8°C 66.9°F19.4°C 48% 1.8 mph NW2.9 kmh NW 3.1 mph5.0 kmh 30.13 in1020.3 mb 0.00 in0.0 mm 0.00 in0.0 mm 0.00 in0.0 mm
01:20 PM 88.9°F31.6°C 66.6°F19.2°C 48% 2.5 mph SW4.0 kmh SW 5.4 mph8.7 kmh 30.13 in1020.3 mb 0.00 in0.0 mm 0.00 in0.0 mm 0.00 in0.0 mm
01:15 PM 88.0°F31.1°C 68.2°F20.1°C 52% 1.8 mph ENE2.9 kmh ENE 5.4 mph8.7 kmh 30.13 in1020.3 mb 0.00 in0.0 mm 0.00 in0.0 mm 0.00 in0.0 mm
01:10 PM 87.6°F30.9°C 66.0°F18.9°C 49% 3.6 mph WSW5.8 kmh WSW 6.3 mph10.1 kmh 30.13 in1020.3 mb 0.00 in0.0 mm 0.00 in0.0 mm 0.00 in0.0 mm
01:05 PM 87.3°F30.7°C 67.5°F19.7°C 52% 2.5 mph SE4.0 kmh SE 5.4 mph8.7 kmh 30.13 in1020.3 mb 0.00 in0.0 mm 0.00 in0.0 mm 0.00 in0.0 mm
01:00 PM 86.9°F30.5°C 66.0°F18.9°C 50% 2.9 mph SW4.7 kmh SW 5.4 mph8.7 kmh 30.14 in1020.7 mb 0.00 in0.0 mm 0.00 in0.0 mm 0.00 in0.0 mm
12:55 PM 86.7°F30.4°C 67.5°F19.7°C 53% 2.2 mph NW3.5 kmh NW 4.3 mph6.9 kmh 30.14 in1020.7 mb 0.00 in0.0 mm 0.00 in0.0 mm 0.00 in0.0 mm
12:50 PM 86.4°F30.2°C 66.0°F18.9°C 51% 2.5 mph SW4.0 kmh SW 4.3 mph6.9 kmh 30.14 in1020.7 mb 0.00 in0.0 mm 0.00 in0.0 mm 0.00 in0.0 mm
12:45 PM 86.2°F30.1°C 65.8°F18.8°C 51% 1.8 mph SW2.9 kmh SW 6.3 mph10.1 kmh 30.14 in1020.7 mb 0.00 in0.0 mm 0.00 in0.0 mm 0.00 in0.0 mm
12:40 PM 86.5°F30.3°C 67.5°F19.7°C 53% 1.6 mph SW2.6 kmh SW 5.4 mph8.7 kmh 30.14 in1020.7 mb 0.00 in0.0 mm 0.00 in0.0 mm 0.00 in0.0 mm
12:35 PM 86.4°F30.2°C 66.7°F19.3°C 52% 3.4 mph WSW5.5 kmh WSW 6.3 mph10.1 kmh 30.14 in1020.7 mb 0.00 in0.0 mm 0.00 in0.0 mm 0.00 in0.0 mm
12:30 PM 86.4°F30.2°C 66.0°F18.9°C 51% 2.0 mph WSW3.2 kmh WSW 6.3 mph10.1 kmh 30.14 in1020.7 mb 0.00 in0.0 mm 0.00 in0.0 mm 0.00 in0.0 mm
12:25 PM 85.8°F29.9°C 67.3°F19.6°C 54% 1.1 mph SW1.8 kmh SW 2.0 mph3.2 kmh 30.14 in1020.7 mb 0.00 in0.0 mm 0.00 in0.0 mm 0.00 in0.0 mm
12:20 PM 85.5°F29.7°C 66.4°F19.1°C 53% 1.6 mph SW2.6 kmh SW 5.4 mph8.7 kmh 30.14 in1020.7 mb 0.00 in0.0 mm 0.00 in0.0 mm 0.00 in0.0 mm
12:15 PM 85.6°F29.8°C 67.1°F19.5°C 54% 3.8 mph SW6.1 kmh SW 6.3 mph10.1 kmh 30.14 in1020.7 mb 0.00 in0.0 mm 0.00 in0.0 mm 0.00 in0.0 mm
12:10 PM 85.5°F29.7°C 67.5°F19.7°C 55% 3.1 mph W5.0 kmh W 7.4 mph11.9 kmh 30.14 in1020.7 mb 0.00 in0.0 mm 0.00 in0.0 mm 0.00 in0.0 mm
12:04 PM 85.6°F29.8°C 66.6°F19.2°C 53% 2.2 mph SW3.5 kmh SW 5.4 mph8.7 kmh 30.14 in1020.7 mb 0.00 in0.0 mm 0.00 in0.0 mm 0.00 in0.0 mm
11:59 AM 84.9°F29.4°C 67.5°F19.7°C 56% 2.0 mph SW3.2 kmh SW 3.1 mph5.0 kmh 30.14 in1020.7 mb 0.00 in0.0 mm 0.00 in0.0 mm 0.00 in0.0 mm
11:54 AM 84.6°F29.2°C 66.6°F19.2°C 55% 1.8 mph SW2.9 kmh SW 5.4 mph8.7 kmh 30.14 in1020.7 mb 0.00 in0.0 mm 0.00 in0.0 mm 0.00 in0.0 mm
11:49 AM 84.6°F29.2°C 67.1°F19.5°C 56% 2.0 mph WNW3.2 kmh WNW 6.3 mph10.1 kmh 30.14 in1020.7 mb 0.00 in0.0 mm 0.00 in0.0 mm 0.00 in0.0 mm
11:44 AM 84.2°F29.0°C 66.7°F19.3°C 56% 3.1 mph NW5.0 kmh NW 7.4 mph11.9 kmh 30.15 in1021.0 mb 0.00 in0.0 mm 0.00 in0.0 mm 0.00 in0.0 mm
11:39 AM 84.0°F28.9°C 66.6°F19.2°C 56% 3.1 mph W5.0 kmh W 5.4 mph8.7 kmh 30.15 in1021.0 mb 0.00 in0.0 mm 0.00 in0.0 mm 0.00 in0.0 mm
11:34 AM 84.0°F28.9°C 65.7°F18.7°C 54% 4.0 mph W6.4 kmh W 7.4 mph11.9 kmh 30.15 in1021.0 mb 0.00 in0.0 mm 0.00 in0.0 mm 0.00 in0.0 mm
11:29 AM 84.0°F28.9°C 66.2°F19.0°C 55% 2.7 mph W4.3 kmh W 7.4 mph11.9 kmh 30.15 in1021.0 mb 0.00 in0.0 mm 0.00 in0.0 mm 0.00 in0.0 mm
11:24 AM 84.0°F28.9°C 65.7°F18.7°C 54% 3.1 mph W5.0 kmh W 5.4 mph8.7 kmh 30.15 in1021.0 mb 0.00 in0.0 mm 0.00 in0.0 mm 0.00 in0.0 mm
11:19 AM 84.0°F28.9°C 66.6°F19.2°C 56% 0.9 mph WSW1.4 kmh WSW 7.4 mph11.9 kmh 30.15 in1021.0 mb 0.00 in0.0 mm 0.00 in0.0 mm 0.00 in0.0 mm
11:14 AM 84.2°F29.0°C 65.7°F18.7°C 54% 3.6 mph S5.8 kmh S 7.4 mph11.9 kmh 30.15 in1021.0 mb 0.00 in0.0 mm 0.00 in0.0 mm 0.00 in0.0 mm
11:09 AM 83.8°F28.8°C 64.9°F18.3°C 53% 2.2 mph SSW3.5 kmh SSW 6.3 mph10.1 kmh 30.16 in1021.3 mb 0.00 in0.0 mm 0.00 in0.0 mm 0.00 in0.0 mm
11:04 AM 83.7°F28.7°C 65.3°F18.5°C 54% 4.0 mph SW6.4 kmh SW 6.3 mph10.1 kmh 30.16 in1021.3 mb 0.00 in0.0 mm 0.00 in0.0 mm 0.00 in0.0 mm
10:59 AM 83.1°F28.4°C 65.3°F18.5°C 55% 2.2 mph SW3.5 kmh SW 5.4 mph8.7 kmh 30.16 in1021.3 mb 0.00 in0.0 mm 0.00 in0.0 mm 0.00 in0.0 mm
10:54 AM 82.9°F28.3°C 64.6°F18.1°C 54% 3.6 mph SSW5.8 kmh SSW 6.3 mph10.1 kmh 30.16 in1021.3 mb 0.00 in0.0 mm 0.00 in0.0 mm 0.00 in0.0 mm
10:49 AM 82.6°F28.1°C 64.2°F17.9°C 54% 3.1 mph SW5.0 kmh SW 6.3 mph10.1 kmh 30.16 in1021.3 mb 0.00 in0.0 mm 0.00 in0.0 mm 0.00 in0.0 mm
10:44 AM 82.4°F28.0°C 64.0°F17.8°C 54% 3.1 mph SSW5.0 kmh SSW 7.4 mph11.9 kmh 30.16 in1021.3 mb 0.00 in0.0 mm 0.00 in0.0 mm 0.00 in0.0 mm
10:39 AM 82.4°F28.0°C 64.0°F17.8°C 54% 3.6 mph ESE5.8 kmh ESE 6.3 mph10.1 kmh 30.16 in1021.3 mb 0.00 in0.0 mm 0.00 in0.0 mm 0.00 in0.0 mm
10:34 AM 82.6°F28.1°C 64.2°F17.9°C 54% 3.6 mph SSW5.8 kmh SSW 6.3 mph10.1 kmh 30.16 in1021.3 mb 0.00 in0.0 mm 0.00 in0.0 mm 0.00 in0.0 mm
10:29 AM 82.8°F28.2°C 64.4°F18.0°C 54% 2.5 mph S4.0 kmh S 5.4 mph8.7 kmh 30.16 in1021.3 mb 0.00 in0.0 mm 0.00 in0.0 mm 0.00 in0.0 mm
10:24 AM 82.6°F28.1°C 64.8°F18.2°C 55% 3.6 mph SE5.8 kmh SE 7.4 mph11.9 kmh 30.16 in1021.3 mb 0.00 in0.0 mm 0.00 in0.0 mm 0.00 in0.0 mm
10:19 AM 82.0°F27.8°C 64.8°F18.2°C 56% 3.1 mph SE5.0 kmh SE 6.3 mph10.1 kmh 30.16 in1021.3 mb 0.00 in0.0 mm 0.00 in0.0 mm 0.00 in0.0 mm
10:14 AM 81.5°F27.5°C 66.2°F19.0°C 60% 4.0 mph S6.4 kmh S 6.3 mph10.1 kmh 30.16 in1021.3 mb 0.00 in0.0 mm 0.00 in0.0 mm 0.00 in0.0 mm
10:09 AM 81.1°F27.3°C 64.4°F18.0°C 57% 2.9 mph S4.7 kmh S 5.4 mph8.7 kmh 30.16 in1021.3 mb 0.00 in0.0 mm 0.00 in0.0 mm 0.00 in0.0 mm
10:04 AM 81.1°F27.3°C 64.9°F18.3°C 58% 2.5 mph SW4.0 kmh SW 5.4 mph8.7 kmh 30.16 in1021.3 mb 0.00 in0.0 mm 0.00 in0.0 mm 0.00 in0.0 mm
09:59 AM 81.0°F27.2°C 65.3°F18.5°C 59% 2.9 mph S4.7 kmh S 5.4 mph8.7 kmh 30.16 in1021.3 mb 0.00 in0.0 mm 0.00 in0.0 mm 0.00 in0.0 mm
09:54 AM 80.4°F26.9°C 65.3°F18.5°C 60% 2.2 mph SW3.5 kmh SW 4.3 mph6.9 kmh 30.16 in1021.3 mb 0.00 in0.0 mm 0.00 in0.0 mm 0.00 in0.0 mm
09:49 AM 80.1°F26.7°C 65.8°F18.8°C 62% 3.1 mph S5.0 kmh S 6.3 mph10.1 kmh 30.16 in1021.3 mb 0.00 in0.0 mm 0.00 in0.0 mm 0.00 in0.0 mm
09:44 AM 79.3°F26.3°C 64.8°F18.2°C 61% 2.0 mph SE3.2 kmh SE 4.3 mph6.9 kmh 30.16 in1021.3 mb 0.00 in0.0 mm 0.00 in0.0 mm 0.00 in0.0 mm
09:39 AM 79.0°F26.1°C 64.8°F18.2°C 62% 1.3 mph SSW2.1 kmh SSW 6.3 mph10.1 kmh 30.17 in1021.7 mb 0.00 in0.0 mm 0.00 in0.0 mm 0.00 in0.0 mm
09:34 AM 78.4°F25.8°C 64.8°F18.2°C 63% 3.6 mph SE5.8 kmh SE 6.3 mph10.1 kmh 30.16 in1021.3 mb 0.00 in0.0 mm 0.00 in0.0 mm 0.00 in0.0 mm
09:29 AM 77.7°F25.4°C 65.5°F18.6°C 66% 2.7 mph SE4.3 kmh SE 5.4 mph8.7 kmh 30.16 in1021.3 mb 0.00 in0.0 mm 0.00 in0.0 mm 0.00 in0.0 mm
09:24 AM 77.4°F25.2°C 65.1°F18.4°C 66% 1.8 mph S2.9 kmh S 4.3 mph6.9 kmh 30.16 in1021.3 mb 0.00 in0.0 mm 0.00 in0.0 mm 0.00 in0.0 mm
09:19 AM 76.6°F24.8°C 65.3°F18.5°C 68% 1.1 mph S1.8 kmh S 4.3 mph6.9 kmh 30.16 in1021.3 mb 0.00 in0.0 mm 0.00 in0.0 mm 0.00 in0.0 mm
09:14 AM 76.3°F24.6°C 64.9°F18.3°C 68% 2.0 mph SW3.2 kmh SW 5.4 mph8.7 kmh 30.16 in1021.3 mb 0.00 in0.0 mm 0.00 in0.0 mm 0.00 in0.0 mm
09:09 AM 75.7°F24.3°C 65.3°F18.5°C 70% 3.1 mph SSW5.0 kmh SSW 5.4 mph8.7 kmh 30.16 in1021.3 mb 0.00 in0.0 mm 0.00 in0.0 mm 0.00 in0.0 mm
09:04 AM 75.4°F24.1°C 64.9°F18.3°C 70% 2.9 mph SW4.7 kmh SW 6.3 mph10.1 kmh 30.16 in1021.3 mb 0.00 in0.0 mm 0.00 in0.0 mm 0.00 in0.0 mm
08:59 AM 75.0°F23.9°C 65.3°F18.5°C 72% 2.7 mph SSW4.3 kmh SSW 6.3 mph10.1 kmh 30.16 in1021.3 mb 0.00 in0.0 mm 0.00 in0.0 mm 0.00 in0.0 mm
08:54 AM 74.5°F23.6°C 65.3°F18.5°C 73% 1.3 mph SSE2.1 kmh SSE 4.3 mph6.9 kmh 30.16 in1021.3 mb 0.00 in0.0 mm 0.00 in0.0 mm 0.00 in0.0 mm
08:49 AM 73.9°F23.3°C 65.5°F18.6°C 75% 1.8 mph SSW2.9 kmh SSW 4.3 mph6.9 kmh 30.16 in1021.3 mb 0.00 in0.0 mm 0.00 in0.0 mm 0.00 in0.0 mm
08:44 AM 73.2°F22.9°C 64.8°F18.2°C 75% 1.1 mph WSW1.8 kmh WSW 4.3 mph6.9 kmh 30.17 in1021.7 mb 0.00 in0.0 mm 0.00 in0.0 mm 0.00 in0.0 mm
08:39 AM 72.5°F22.5°C 64.6°F18.1°C 76% 1.8 mph S2.9 kmh S 4.3 mph6.9 kmh 30.17 in1021.7 mb 0.00 in0.0 mm 0.00 in0.0 mm 0.00 in0.0 mm
08:34 AM 71.8°F22.1°C 64.2°F17.9°C 77% 2.5 mph SW4.0 kmh SW 4.3 mph6.9 kmh 30.17 in1021.7 mb 0.00 in0.0 mm 0.00 in0.0 mm 0.00 in0.0 mm
08:29 AM 71.1°F21.7°C 64.2°F17.9°C 79% 1.6 mph SW2.6 kmh SW 5.4 mph8.7 kmh 30.17 in1021.7 mb 0.00 in0.0 mm 0.00 in0.0 mm 0.00 in0.0 mm
08:24 AM 70.2°F21.2°C 63.7°F17.6°C 80% 3.1 mph WSW5.0 kmh WSW 5.4 mph8.7 kmh 30.17 in1021.7 mb 0.00 in0.0 mm 0.00 in0.0 mm 0.00 in0.0 mm
08:19 AM 69.4°F20.8°C 63.3°F17.4°C 81% 1.6 mph S2.6 kmh S 3.1 mph5.0 kmh 30.16 in1021.3 mb 0.00 in0.0 mm 0.00 in0.0 mm 0.00 in0.0 mm
08:14 AM 68.9°F20.5°C 63.1°F17.3°C 82% 0.2 mph SE0.3 kmh SE 4.3 mph6.9 kmh 30.16 in1021.3 mb 0.00 in0.0 mm 0.00 in0.0 mm 0.00 in0.0 mm
08:09 AM 68.4°F20.2°C 62.6°F17.0°C 82% 1.8 mph SW2.9 kmh SW 4.3 mph6.9 kmh 30.16 in1021.3 mb 0.00 in0.0 mm 0.00 in0.0 mm 0.00 in0.0 mm
08:04 AM 67.8°F19.9°C 62.4°F16.9°C 83% 2.9 mph SW4.7 kmh SW 6.3 mph10.1 kmh 30.17 in1021.7 mb 0.00 in0.0 mm 0.00 in0.0 mm 0.00 in0.0 mm
07:59 AM 67.3°F19.6°C 62.2°F16.8°C 84% 2.7 mph SW4.3 kmh SW 5.4 mph8.7 kmh 30.17 in1021.7 mb 0.00 in0.0 mm 0.00 in0.0 mm 0.00 in0.0 mm
07:54 AM 66.9°F19.4°C 62.2°F16.8°C 85% 1.1 mph WSW1.8 kmh WSW 3.1 mph5.0 kmh 30.17 in1021.7 mb 0.00 in0.0 mm 0.00 in0.0 mm 0.00 in0.0 mm
07:49 AM 66.6°F19.2°C 61.9°F16.6°C 85% 1.1 mph S1.8 kmh S 4.3 mph6.9 kmh 30.17 in1021.7 mb 0.00 in0.0 mm 0.00 in0.0 mm 0.00 in0.0 mm
07:44 AM 66.2°F19.0°C 61.5°F16.4°C 85% 1.1 mph S1.8 kmh S 3.1 mph5.0 kmh 30.16 in1021.3 mb 0.00 in0.0 mm 0.00 in0.0 mm 0.00 in0.0 mm
07:39 AM 65.8°F18.8°C 61.5°F16.4°C 86% 1.1 mph SSE1.8 kmh SSE 4.3 mph6.9 kmh 30.16 in1021.3 mb 0.00 in0.0 mm 0.00 in0.0 mm 0.00 in0.0 mm
07:34 AM 65.7°F18.7°C 61.3°F16.3°C 86% 1.1 mph SSE1.8 kmh SSE 4.3 mph6.9 kmh 30.17 in1021.7 mb 0.00 in0.0 mm 0.00 in0.0 mm 0.00 in0.0 mm
07:29 AM 65.3°F18.5°C 61.3°F16.3°C 87% 2.9 mph S4.7 kmh S 4.3 mph6.9 kmh 30.17 in1021.7 mb 0.00 in0.0 mm 0.00 in0.0 mm 0.00 in0.0 mm
07:24 AM 65.1°F18.4°C 61.5°F16.4°C 88% 0.9 mph S1.4 kmh S 3.1 mph5.0 kmh 30.16 in1021.3 mb 0.00 in0.0 mm 0.00 in0.0 mm 0.00 in0.0 mm
07:19 AM 64.9°F18.3°C 61.3°F16.3°C 88% 0.9 mph E1.4 kmh E 5.4 mph8.7 kmh 30.17 in1021.7 mb 0.00 in0.0 mm 0.00 in0.0 mm 0.00 in0.0 mm
07:14 AM 64.6°F18.1°C 61.3°F16.3°C 89% 2.5 mph SSE4.0 kmh SSE 5.4 mph8.7 kmh 30.17 in1021.7 mb 0.00 in0.0 mm 0.00 in0.0 mm 0.00 in0.0 mm
07:09 AM 64.2°F17.9°C 61.0°F16.1°C 89% 2.0 mph SE3.2 kmh SE 3.1 mph5.0 kmh 30.17 in1021.7 mb 0.00 in0.0 mm 0.00 in0.0 mm 0.00 in0.0 mm
07:04 AM 64.0°F17.8°C 60.8°F16.0°C 89% Calm Calm 2.0 mph3.2 kmh 30.17 in1021.7 mb 0.00 in0.0 mm 0.00 in0.0 mm 0.00 in0.0 mm
06:59 AM 63.9°F17.7°C 60.8°F16.0°C 90% 0.9 mph SE1.4 kmh SE 3.1 mph5.0 kmh 30.17 in1021.7 mb 0.00 in0.0 mm 0.00 in0.0 mm 0.00 in0.0 mm
06:54 AM 63.7°F17.6°C 60.6°F15.9°C 90% 1.8 mph SE2.9 kmh SE 3.1 mph5.0 kmh 30.17 in1021.7 mb 0.00 in0.0 mm 0.00 in0.0 mm 0.00 in0.0 mm
06:49 AM 63.5°F17.5°C 60.4°F15.8°C 90% 0.7 mph S1.1 kmh S 3.1 mph5.0 kmh 30.17 in1021.7 mb 0.00 in0.0 mm 0.00 in0.0 mm 0.00 in0.0 mm
06:44 AM 63.1°F17.3°C 60.1°F15.6°C 90% Calm Calm 1.1 mph1.8 kmh 30.17 in1021.7 mb 0.00 in0.0 mm 0.00 in0.0 mm 0.00 in0.0 mm
06:39 AM 63.1°F17.3°C 60.1°F15.6°C 90% Calm Calm 2.0 mph3.2 kmh 30.16 in1021.3 mb 0.00 in0.0 mm 0.00 in0.0 mm 0.00 in0.0 mm
06:34 AM 63.0°F17.2°C 60.3°F15.7°C 91% Calm Calm 3.1 mph5.0 kmh 30.16 in1021.3 mb 0.00 in0.0 mm 0.00 in0.0 mm 0.00 in0.0 mm
06:29 AM 62.8°F17.1°C 59.7°F15.4°C 90% 1.3 mph S2.1 kmh S 3.1 mph5.0 kmh 30.17 in1021.7 mb 0.00 in0.0 mm 0.00 in0.0 mm 0.00 in0.0 mm
06:24 AM 62.6°F17.0°C 59.5°F15.3°C 90% Calm Calm -- 30.17 in1021.7 mb 0.00 in0.0 mm 0.00 in0.0 mm 0.00 in0.0 mm
06:19 AM 62.4°F16.9°C 59.4°F15.2°C 90% Calm Calm 1.1 mph1.8 kmh 30.17 in1021.7 mb 0.00 in0.0 mm 0.00 in0.0 mm 0.00 in0.0 mm
06:14 AM 62.4°F16.9°C 59.4°F15.2°C 90% Calm Calm 1.1 mph1.8 kmh 30.16 in1021.3 mb 0.00 in0.0 mm 0.00 in0.0 mm 0.00 in0.0 mm
06:09 AM 62.2°F16.8°C 59.2°F15.1°C 90% 0.2 mph WSW0.3 kmh WSW 2.0 mph3.2 kmh 30.16 in1021.3 mb 0.00 in0.0 mm 0.00 in0.0 mm 0.00 in0.0 mm
06:04 AM 62.2°F16.8°C 59.2°F15.1°C 90% Calm Calm 1.1 mph1.8 kmh 30.16 in1021.3 mb 0.00 in0.0 mm 0.00 in0.0 mm 0.00 in0.0 mm
05:59 AM 62.2°F16.8°C 59.2°F15.1°C 90% Calm Calm -- 30.17 in1021.7 mb 0.00 in0.0 mm 0.00 in0.0 mm 0.00 in0.0 mm
05:54 AM 62.2°F16.8°C 59.2°F15.1°C 90% Calm Calm 1.1 mph1.8 kmh 30.17 in1021.7 mb 0.00 in0.0 mm 0.00 in0.0 mm 0.00 in0.0 mm
05:49 AM 62.2°F16.8°C 59.5°F15.3°C 91% Calm Calm 1.1 mph1.8 kmh 30.17 in1021.7 mb 0.00 in0.0 mm 0.00 in0.0 mm 0.00 in0.0 mm
05:44 AM 62.2°F16.8°C 59.5°F15.3°C 91% 0.7 mph WSW1.1 kmh WSW 2.0 mph3.2 kmh 30.17 in1021.7 mb 0.00 in0.0 mm 0.00 in0.0 mm 0.00 in0.0 mm
05:39 AM 62.2°F16.8°C 59.5°F15.3°C 91% 0.7 mph WSW1.1 kmh WSW 2.0 mph3.2 kmh 30.17 in1021.7 mb 0.00 in0.0 mm 0.00 in0.0 mm 0.00 in0.0 mm
05:34 AM 62.1°F16.7°C 59.4°F15.2°C 91% 0.2 mph WSW0.3 kmh WSW 2.0 mph3.2 kmh 30.17 in1021.7 mb 0.00 in0.0 mm 0.00 in0.0 mm 0.00 in0.0 mm
05:29 AM 62.1°F16.7°C 59.4°F15.2°C 91% Calm Calm -- 30.17 in1021.7 mb 0.00 in0.0 mm 0.00 in0.0 mm 0.00 in0.0 mm
05:24 AM 62.1°F16.7°C 59.4°F15.2°C 91% 0.2 mph WSW0.3 kmh WSW 4.3 mph6.9 kmh 30.17 in1021.7 mb 0.00 in0.0 mm 0.00 in0.0 mm 0.00 in0.0 mm
05:19 AM 62.1°F16.7°C 59.4°F15.2°C 91% Calm Calm -- 30.17 in1021.7 mb 0.00 in0.0 mm 0.00 in0.0 mm 0.00 in0.0 mm
05:14 AM 62.1°F16.7°C 59.4°F15.2°C 91% 0.2 mph SE0.3 kmh SE 2.0 mph3.2 kmh 30.17 in1021.7 mb 0.00 in0.0 mm 0.00 in0.0 mm 0.00 in0.0 mm
05:09 AM 62.1°F16.7°C 59.4°F15.2°C 91% Calm Calm 3.1 mph5.0 kmh 30.17 in1021.7 mb 0.00 in0.0 mm 0.00 in0.0 mm 0.00 in0.0 mm
05:04 AM 62.1°F16.7°C 59.4°F15.2°C 91% 0.4 mph SE0.6 kmh SE 2.0 mph3.2 kmh 30.17 in1021.7 mb 0.00 in0.0 mm 0.00 in0.0 mm 0.00 in0.0 mm
04:59 AM 62.1°F16.7°C 59.4°F15.2°C 91% 0.4 mph SE0.6 kmh SE 2.0 mph3.2 kmh 30.17 in1021.7 mb 0.00 in0.0 mm 0.00 in0.0 mm 0.00 in0.0 mm
04:54 AM 62.1°F16.7°C 59.4°F15.2°C 91% Calm Calm 1.1 mph1.8 kmh 30.17 in1021.7 mb 0.00 in0.0 mm 0.00 in0.0 mm 0.00 in0.0 mm
04:49 AM 62.1°F16.7°C 59.4°F15.2°C 91% Calm Calm 3.1 mph5.0 kmh 30.17 in1021.7 mb 0.00 in0.0 mm 0.00 in0.0 mm 0.00 in0.0 mm
04:44 AM 62.1°F16.7°C 59.4°F15.2°C 91% Calm Calm 2.0 mph3.2 kmh 30.17 in1021.7 mb 0.00 in0.0 mm 0.00 in0.0 mm 0.00 in0.0 mm
04:39 AM 62.1°F16.7°C 59.4°F15.2°C 91% Calm Calm 2.0 mph3.2 kmh 30.17 in1021.7 mb 0.00 in0.0 mm 0.00 in0.0 mm 0.00 in0.0 mm
04:34 AM 62.1°F16.7°C 59.4°F15.2°C 91% 0.4 mph SW0.6 kmh SW 2.0 mph3.2 kmh 30.16 in1021.3 mb 0.00 in0.0 mm 0.00 in0.0 mm 0.00 in0.0 mm
04:29 AM 62.2°F16.8°C 59.5°F15.3°C 91% 0.4 mph SW0.6 kmh SW 2.0 mph3.2 kmh 30.17 in1021.7 mb 0.00 in0.0 mm 0.00 in0.0 mm 0.00 in0.0 mm
04:24 AM 62.2°F16.8°C 59.5°F15.3°C 91% Calm Calm -- 30.16 in1021.3 mb 0.00 in0.0 mm 0.00 in0.0 mm 0.00 in0.0 mm
04:19 AM 62.2°F16.8°C 59.5°F15.3°C 91% 0.9 mph SW1.4 kmh SW 3.1 mph5.0 kmh 30.16 in1021.3 mb 0.00 in0.0 mm 0.00 in0.0 mm 0.00 in0.0 mm
04:14 AM 62.2°F16.8°C 59.5°F15.3°C 91% 0.4 mph SW0.6 kmh SW 2.0 mph3.2 kmh 30.17 in1021.7 mb 0.00 in0.0 mm 0.00 in0.0 mm 0.00 in0.0 mm
04:09 AM 62.2°F16.8°C 59.5°F15.3°C 91% 0.2 mph SW0.3 kmh SW 2.0 mph3.2 kmh 30.17 in1021.7 mb 0.00 in0.0 mm 0.00 in0.0 mm 0.00 in0.0 mm
04:04 AM 62.2°F16.8°C 59.5°F15.3°C 91% Calm Calm 2.0 mph3.2 kmh 30.17 in1021.7 mb 0.00 in0.0 mm 0.00 in0.0 mm 0.00 in0.0 mm
03:59 AM 62.4°F16.9°C 59.7°F15.4°C 91% 0.4 mph SW0.6 kmh SW 2.0 mph3.2 kmh 30.17 in1021.7 mb 0.00 in0.0 mm 0.00 in0.0 mm 0.00 in0.0 mm
03:54 AM 62.4°F16.9°C 59.7°F15.4°C 91% Calm Calm 3.1 mph5.0 kmh 30.17 in1021.7 mb 0.00 in0.0 mm 0.00 in0.0 mm 0.00 in0.0 mm
03:49 AM 62.4°F16.9°C 59.7°F15.4°C 91% Calm Calm 1.1 mph1.8 kmh 30.17 in1021.7 mb 0.00 in0.0 mm 0.00 in0.0 mm 0.00 in0.0 mm
03:44 AM 62.4°F16.9°C 59.7°F15.4°C 91% Calm Calm 1.1 mph1.8 kmh 30.17 in1021.7 mb 0.00 in0.0 mm 0.00 in0.0 mm 0.00 in0.0 mm
03:39 AM 62.4°F16.9°C 59.7°F15.4°C 91% Calm Calm 3.1 mph5.0 kmh 30.16 in1021.3 mb 0.00 in0.0 mm 0.00 in0.0 mm 0.00 in0.0 mm
03:34 AM 62.6°F17.0°C 59.9°F15.5°C 91% 0.4 mph SW0.6 kmh SW 3.1 mph5.0 kmh 30.16 in1021.3 mb 0.00 in0.0 mm 0.00 in0.0 mm 0.00 in0.0 mm
03:29 AM 62.8°F17.1°C 60.1°F15.6°C 91% Calm Calm -- 30.17 in1021.7 mb 0.00 in0.0 mm 0.00 in0.0 mm 0.00 in0.0 mm
03:24 AM 62.8°F17.1°C 60.1°F15.6°C 91% Calm Calm -- 30.17 in1021.7 mb 0.00 in0.0 mm 0.00 in0.0 mm 0.00 in0.0 mm
03:19 AM 62.8°F17.1°C 60.1°F15.6°C 91% Calm Calm -- 30.17 in1021.7 mb 0.00 in0.0 mm 0.00 in0.0 mm 0.00 in0.0 mm
03:14 AM 62.8°F17.1°C 60.1°F15.6°C 91% Calm Calm -- 30.17 in1021.7 mb 0.00 in0.0 mm 0.00 in0.0 mm 0.00 in0.0 mm
03:09 AM 63.0°F17.2°C 60.3°F15.7°C 91% Calm Calm -- 30.17 in1021.7 mb 0.00 in0.0 mm 0.00 in0.0 mm 0.00 in0.0 mm
03:04 AM 63.0°F17.2°C 59.9°F15.5°C 90% Calm Calm -- 30.17 in1021.7 mb 0.00 in0.0 mm 0.00 in0.0 mm 0.00 in0.0 mm
02:59 AM 63.1°F17.3°C 60.1°F15.6°C 90% Calm Calm -- 30.17 in1021.7 mb 0.00 in0.0 mm 0.00 in0.0 mm 0.00 in0.0 mm
02:54 AM 63.1°F17.3°C 60.1°F15.6°C 90% Calm Calm -- 30.17 in1021.7 mb 0.00 in0.0 mm 0.00 in0.0 mm 0.00 in0.0 mm
02:49 AM 63.1°F17.3°C 60.1°F15.6°C 90% Calm Calm -- 30.17 in1021.7 mb 0.00 in0.0 mm 0.00 in0.0 mm 0.00 in0.0 mm
02:44 AM 63.1°F17.3°C 60.1°F15.6°C 90% Calm Calm -- 30.17 in1021.7 mb 0.00 in0.0 mm 0.00 in0.0 mm 0.00 in0.0 mm
02:39 AM 63.3°F17.4°C 60.3°F15.7°C 90% Calm Calm -- 30.17 in1021.7 mb 0.00 in0.0 mm 0.00 in0.0 mm 0.00 in0.0 mm
02:34 AM 63.3°F17.4°C 60.3°F15.7°C 90% Calm Calm 1.1 mph1.8 kmh 30.17 in1021.7 mb 0.00 in0.0 mm 0.00 in0.0 mm 0.00 in0.0 mm
02:29 AM 63.3°F17.4°C 60.3°F15.7°C 90% Calm Calm -- 30.17 in1021.7 mb 0.00 in0.0 mm 0.00 in0.0 mm 0.00 in0.0 mm
02:24 AM 63.3°F17.4°C 60.3°F15.7°C 90% Calm Calm 1.1 mph1.8 kmh 30.17 in1021.7 mb 0.00 in0.0 mm 0.00 in0.0 mm 0.00 in0.0 mm
02:19 AM 63.3°F17.4°C 60.3°F15.7°C 90% Calm Calm 1.1 mph1.8 kmh 30.17 in1021.7 mb 0.00 in0.0 mm 0.00 in0.0 mm 0.00 in0.0 mm
02:14 AM 63.5°F17.5°C 60.4°F15.8°C 90% 0.2 mph SW0.3 kmh SW 1.1 mph1.8 kmh 30.17 in1021.7 mb 0.00 in0.0 mm 0.00 in0.0 mm 0.00 in0.0 mm
02:09 AM 63.7°F17.6°C 60.6°F15.9°C 90% Calm Calm -- 30.17 in1021.7 mb 0.00 in0.0 mm 0.00 in0.0 mm 0.00 in0.0 mm
02:04 AM 63.7°F17.6°C 60.6°F15.9°C 90% Calm Calm -- 30.17 in1021.7 mb 0.00 in0.0 mm 0.00 in0.0 mm 0.00 in0.0 mm
01:55 AM 63.7°F17.6°C 60.6°F15.9°C 90% Calm Calm 3.1 mph5.0 kmh 30.18 in1022.0 mb 0.00 in0.0 mm 0.00 in0.0 mm 0.00 in0.0 mm
01:50 AM 63.7°F17.6°C 60.6°F15.9°C 90% Calm Calm -- 30.18 in1022.0 mb 0.00 in0.0 mm 0.00 in0.0 mm 0.00 in0.0 mm
01:45 AM 63.7°F17.6°C 60.6°F15.9°C 90% Calm Calm -- 30.18 in1022.0 mb 0.00 in0.0 mm 0.00 in0.0 mm 0.00 in0.0 mm
01:40 AM 63.7°F17.6°C 60.4°F15.8°C 89% Calm Calm 1.1 mph1.8 kmh 30.18 in1022.0 mb 0.00 in0.0 mm 0.00 in0.0 mm 0.00 in0.0 mm
01:35 AM 63.7°F17.6°C 60.4°F15.8°C 89% 0.4 mph SW0.6 kmh SW 2.0 mph3.2 kmh 30.18 in1022.0 mb 0.00 in0.0 mm 0.00 in0.0 mm 0.00 in0.0 mm
01:30 AM 63.7°F17.6°C 60.4°F15.8°C 89% Calm Calm 2.0 mph3.2 kmh 30.17 in1021.7 mb 0.00 in0.0 mm 0.00 in0.0 mm 0.00 in0.0 mm
01:25 AM 63.7°F17.6°C 60.4°F15.8°C 89% 0.4 mph SW0.6 kmh SW 2.0 mph3.2 kmh 30.18 in1022.0 mb 0.00 in0.0 mm 0.00 in0.0 mm 0.00 in0.0 mm
01:20 AM 63.9°F17.7°C 60.6°F15.9°C 89% 0.7 mph SW1.1 kmh SW 4.3 mph6.9 kmh 30.18 in1022.0 mb 0.00 in0.0 mm 0.00 in0.0 mm 0.00 in0.0 mm
01:15 AM 63.9°F17.7°C 60.6°F15.9°C 89% 0.7 mph SW1.1 kmh SW 4.3 mph6.9 kmh 30.18 in1022.0 mb 0.00 in0.0 mm 0.00 in0.0 mm 0.00 in0.0 mm
01:10 AM 63.9°F17.7°C 60.6°F15.9°C 89% Calm Calm -- 30.18 in1022.0 mb 0.00 in0.0 mm 0.00 in0.0 mm 0.00 in0.0 mm
01:05 AM 63.9°F17.7°C 60.6°F15.9°C 89% Calm Calm -- 30.18 in1022.0 mb 0.00 in0.0 mm 0.00 in0.0 mm 0.00 in0.0 mm
01:00 AM 63.9°F17.7°C 60.6°F15.9°C 89% Calm Calm -- 30.19 in1022.4 mb 0.00 in0.0 mm 0.00 in0.0 mm 0.00 in0.0 mm
12:55 AM 64.0°F17.8°C 60.4°F15.8°C 88% Calm Calm -- 30.18 in1022.0 mb 0.00 in0.0 mm 0.00 in0.0 mm 0.00 in0.0 mm
12:50 AM 64.0°F17.8°C 60.4°F15.8°C 88% Calm Calm -- 30.19 in1022.4 mb 0.00 in0.0 mm 0.00 in0.0 mm 0.00 in0.0 mm
12:45 AM 64.0°F17.8°C 60.4°F15.8°C 88% Calm Calm -- 30.19 in1022.4 mb 0.00 in0.0 mm 0.00 in0.0 mm 0.00 in0.0 mm
12:40 AM 64.2°F17.9°C 60.6°F15.9°C 88% Calm Calm -- 30.19 in1022.4 mb 0.00 in0.0 mm 0.00 in0.0 mm 0.00 in0.0 mm
12:35 AM 64.2°F17.9°C 60.6°F15.9°C 88% Calm Calm -- 30.19 in1022.4 mb 0.00 in0.0 mm 0.00 in0.0 mm 0.00 in0.0 mm
12:30 AM 64.2°F17.9°C 60.6°F15.9°C 88% Calm Calm -- 30.19 in1022.4 mb 0.00 in0.0 mm 0.00 in0.0 mm 0.00 in0.0 mm
12:25 AM 64.4°F18.0°C 60.8°F16.0°C 88% Calm Calm -- 30.19 in1022.4 mb 0.00 in0.0 mm 0.00 in0.0 mm 0.00 in0.0 mm
12:20 AM 64.4°F18.0°C 60.8°F16.0°C 88% Calm Calm -- 30.19 in1022.4 mb 0.00 in0.0 mm 0.00 in0.0 mm 0.00 in0.0 mm
12:15 AM 64.6°F18.1°C 60.6°F15.9°C 87% Calm Calm -- 30.19 in1022.4 mb 0.00 in0.0 mm 0.00 in0.0 mm 0.00 in0.0 mm
12:10 AM 64.6°F18.1°C 60.6°F15.9°C 87% Calm Calm -- 30.19 in1022.4 mb 0.00 in0.0 mm 0.00 in0.0 mm 0.00 in0.0 mm
12:05 AM 64.8°F18.2°C 60.8°F16.0°C 87% Calm Calm -- 30.19 in1022.4 mb 0.00 in0.0 mm 0.00 in0.0 mm 0.00 in0.0 mm